sensor_id;sensor_type;location;lat;lon;timestamp;pressure;altitude;pressure_sealevel;temperature;humidity
57990;BME280;58373;51.824;5.564;2023-06-24T00:01:54;102340.44;;;19.52;73.44
57990;BME280;58373;51.824;5.564;2023-06-24T00:04:20;102343.22;;;19.51;73.44
57990;BME280;58373;51.824;5.564;2023-06-24T00:06:45;102342.38;;;19.50;73.60
57990;BME280;58373;51.824;5.564;2023-06-24T00:09:10;102339.06;;;19.48;73.65
57990;BME280;58373;51.824;5.564;2023-06-24T00:11:36;102341.44;;;19.42;73.46
57990;BME280;58373;51.824;5.564;2023-06-24T00:14:01;102335.41;;;19.31;73.80
57990;BME280;58373;51.824;5.564;2023-06-24T00:16:26;102343.19;;;19.23;73.95
57990;BME280;58373;51.824;5.564;2023-06-24T00:18:52;102354.56;;;19.14;74.20
57990;BME280;58373;51.824;5.564;2023-06-24T00:21:18;102364.16;;;19.05;75.01
57990;BME280;58373;51.824;5.564;2023-06-24T00:23:44;102365.00;;;18.96;74.22
57990;BME280;58373;51.824;5.564;2023-06-24T00:26:09;102358.41;;;18.82;75.22
57990;BME280;58373;51.824;5.564;2023-06-24T00:28:34;102359.81;;;18.77;75.46
57990;BME280;58373;51.824;5.564;2023-06-24T00:31:00;102363.41;;;18.76;75.68
57990;BME280;58373;51.824;5.564;2023-06-24T00:33:26;102374.19;;;18.73;75.67
57990;BME280;58373;51.824;5.564;2023-06-24T00:35:51;102376.16;;;18.71;75.75
57990;BME280;58373;51.824;5.564;2023-06-24T00:38:16;102380.13;;;18.65;75.92
57990;BME280;58373;51.824;5.564;2023-06-24T00:40:42;102381.22;;;18.63;76.25
57990;BME280;58373;51.824;5.564;2023-06-24T00:43:07;102383.84;;;18.63;76.12
57990;BME280;58373;51.824;5.564;2023-06-24T00:45:33;102374.72;;;18.67;76.24
57990;BME280;58373;51.824;5.564;2023-06-24T00:47:58;102364.81;;;18.70;76.27
57990;BME280;58373;51.824;5.564;2023-06-24T00:50:24;102372.53;;;18.72;76.24
57990;BME280;58373;51.824;5.564;2023-06-24T00:52:49;102373.63;;;18.69;76.13
57990;BME280;58373;51.824;5.564;2023-06-24T00:55:15;102385.00;;;18.70;76.09
57990;BME280;58373;51.824;5.564;2023-06-24T00:57:43;102378.78;;;18.71;76.21
57990;BME280;58373;51.824;5.564;2023-06-24T01:00:09;102378.78;;;18.71;76.27
57990;BME280;58373;51.824;5.564;2023-06-24T01:02:39;102372.81;;;18.69;76.22
57990;BME280;58373;51.824;5.564;2023-06-24T01:05:07;102378.06;;;18.69;76.49
57990;BME280;58373;51.824;5.564;2023-06-24T01:07:32;102378.34;;;18.66;76.46
57990;BME280;58373;51.824;5.564;2023-06-24T01:10:00;102381.22;;;18.63;76.56
57990;BME280;58373;51.824;5.564;2023-06-24T01:12:25;102368.38;;;18.60;76.29
57990;BME280;58373;51.824;5.564;2023-06-24T01:14:50;102365.03;;;18.57;76.49
57990;BME280;58373;51.824;5.564;2023-06-24T01:17:16;102365.34;;;18.54;76.54
57990;BME280;58373;51.824;5.564;2023-06-24T01:19:59;102360.34;;;18.51;76.51
57990;BME280;58373;51.824;5.564;2023-06-24T01:27:46;102353.31;;;18.42;77.29
57990;BME280;58373;51.824;5.564;2023-06-24T01:33:06;102346.00;;;18.36;77.85
57990;BME280;58373;51.824;5.564;2023-06-24T01:35:33;102347.91;;;18.34;77.86
57990;BME280;58373;51.824;5.564;2023-06-24T01:38:01;102344.59;;;18.32;77.70
57990;BME280;58373;51.824;5.564;2023-06-24T01:40:30;102349.84;;;18.32;78.13
57990;BME280;58373;51.824;5.564;2023-06-24T01:42:58;102348.06;;;18.33;78.08
57990;BME280;58373;51.824;5.564;2023-06-24T01:45:25;102345.72;;;18.29;77.98
57990;BME280;58373;51.824;5.564;2023-06-24T01:47:57;102336.72;;;18.32;78.08
57990;BME280;58373;51.824;5.564;2023-06-24T01:50:24;102341.00;;;18.33;77.91
57990;BME280;58373;51.824;5.564;2023-06-24T01:52:50;102340.19;;;18.33;77.87
57990;BME280;58373;51.824;5.564;2023-06-24T01:55:18;102341.31;;;18.30;77.56
57990;BME280;58373;51.824;5.564;2023-06-24T01:57:44;102341.56;;;18.27;77.32
57990;BME280;58373;51.824;5.564;2023-06-24T02:00:11;102346.81;;;18.27;77.11
57990;BME280;58373;51.824;5.564;2023-06-24T02:02:37;102341.84;;;18.24;76.96
57990;BME280;58373;51.824;5.564;2023-06-24T02:05:03;102343.63;;;18.23;76.96
57990;BME280;58373;51.824;5.564;2023-06-24T02:07:30;102330.78;;;18.20;76.95
57990;BME280;58373;51.824;5.564;2023-06-24T02:09:56;102332.19;;;18.24;76.75
57990;BME280;58373;51.824;5.564;2023-06-24T02:12:23;102327.75;;;18.25;76.82
57990;BME280;58373;51.824;5.564;2023-06-24T02:14:49;102329.81;;;18.21;76.85
57990;BME280;58373;51.824;5.564;2023-06-24T02:17:15;102331.34;;;18.24;76.88
57990;BME280;58373;51.824;5.564;2023-06-24T02:19:41;102328.84;;;18.22;76.85
57990;BME280;58373;51.824;5.564;2023-06-24T02:22:07;102334.09;;;18.22;76.99
57990;BME280;58373;51.824;5.564;2023-06-24T02:24:34;102332.72;;;18.18;77.35
57990;BME280;58373;51.824;5.564;2023-06-24T02:27:00;102333.81;;;18.16;77.36
57990;BME280;58373;51.824;5.564;2023-06-24T02:29:26;102341.44;;;18.09;77.57
57990;BME280;58373;51.824;5.564;2023-06-24T02:31:52;102341.41;;;17.99;77.68
57990;BME280;58373;51.824;5.564;2023-06-24T02:34:18;102336.03;;;17.91;77.91
57990;BME280;58373;51.824;5.564;2023-06-24T02:36:43;102327.47;;;17.89;78.05
57990;BME280;58373;51.824;5.564;2023-06-24T02:39:08;102329.13;;;17.90;77.86
57990;BME280;58373;51.824;5.564;2023-06-24T02:41:33;102328.16;;;17.91;77.91
57990;BME280;58373;51.824;5.564;2023-06-24T02:43:58;102331.03;;;17.88;78.07
57990;BME280;58373;51.824;5.564;2023-06-24T02:46:24;102318.88;;;17.87;78.31
57990;BME280;58373;51.824;5.564;2023-06-24T02:48:50;102313.91;;;17.84;78.28
57990;BME280;58373;51.824;5.564;2023-06-24T02:51:16;102311.28;;;17.84;78.50
57990;BME280;58373;51.824;5.564;2023-06-24T02:53:41;102317.22;;;17.86;78.55
57990;BME280;58373;51.824;5.564;2023-06-24T02:56:08;102318.88;;;17.87;78.48
57990;BME280;58373;51.824;5.564;2023-06-24T02:58:33;102318.34;;;17.84;78.59
57990;BME280;58373;51.824;5.564;2023-06-24T03:01:02;102322.88;;;17.82;78.89
57990;BME280;58373;51.824;5.564;2023-06-24T03:03:28;102315.00;;;17.82;78.82
57990;BME280;58373;51.824;5.564;2023-06-24T03:05:54;102313.34;;;17.81;79.12
57990;BME280;58373;51.824;5.564;2023-06-24T03:08:21;102323.03;;;17.80;78.86
57990;BME280;58373;51.824;5.564;2023-06-24T03:10:47;102328.28;;;17.80;78.92
57990;BME280;58373;51.824;5.564;2023-06-24T03:13:12;102324.81;;;17.80;79.12
57990;BME280;58373;51.824;5.564;2023-06-24T03:15:37;102330.91;;;17.80;79.11
57990;BME280;58373;51.824;5.564;2023-06-24T03:18:03;102326.63;;;17.79;79.02
57990;BME280;58373;51.824;5.564;2023-06-24T03:20:28;102331.03;;;17.78;79.04
57990;BME280;58373;51.824;5.564;2023-06-24T03:22:53;102330.22;;;17.78;79.02
57990;BME280;58373;51.824;5.564;2023-06-24T03:25:19;102335.47;;;17.78;79.15
57990;BME280;58373;51.824;5.564;2023-06-24T03:27:44;102333.78;;;17.77;79.35
57990;BME280;58373;51.824;5.564;2023-06-24T03:30:10;102339.03;;;17.77;79.09
57990;BME280;58373;51.824;5.564;2023-06-24T03:32:36;102335.72;;;17.75;79.30
57990;BME280;58373;51.824;5.564;2023-06-24T03:35:02;102324.06;;;17.68;79.78
57990;BME280;58373;51.824;5.564;2023-06-24T03:37:27;102324.88;;;17.59;80.02
57990;BME280;58373;51.824;5.564;2023-06-24T03:39:53;102326.63;;;17.48;80.34
57990;BME280;58373;51.824;5.564;2023-06-24T03:42:18;102333.53;;;17.40;80.50
57990;BME280;58373;51.824;5.564;2023-06-24T03:44:44;102328.41;;;17.38;80.34
57990;BME280;58373;51.824;5.564;2023-06-24T03:47:09;102332.94;;;17.36;80.89
57990;BME280;58373;51.824;5.564;2023-06-24T03:49:34;102327.16;;;17.33;81.23
57990;BME280;58373;51.824;5.564;2023-06-24T03:52:00;102331.13;;;17.27;81.08
57990;BME280;58373;51.824;5.564;2023-06-24T03:54:25;102326.41;;;17.21;81.53
57990;BME280;58373;51.824;5.564;2023-06-24T03:56:50;102332.22;;;17.24;81.80
57990;BME280;58373;51.824;5.564;2023-06-24T03:59:15;102334.44;;;17.29;81.47
57990;BME280;58373;51.824;5.564;2023-06-24T04:01:40;102325.34;;;17.33;81.36
57990;BME280;58373;51.824;5.564;2023-06-24T04:04:06;102335.56;;;17.36;81.47
57990;BME280;58373;51.824;5.564;2023-06-24T04:06:31;102337.94;;;17.39;81.51
57990;BME280;58373;51.824;5.564;2023-06-24T04:08:56;102331.72;;;17.40;81.67
57990;BME280;58373;51.824;5.564;2023-06-24T04:11:21;102347.22;;;17.43;81.72
57990;BME280;58373;51.824;5.564;2023-06-24T04:13:47;102343.63;;;17.44;81.65
57990;BME280;58373;51.824;5.564;2023-06-24T04:16:13;102341.69;;;17.46;81.56
57990;BME280;58373;51.824;5.564;2023-06-24T04:18:38;102345.97;;;17.47;81.82
57990;BME280;58373;51.824;5.564;2023-06-24T04:21:04;102345.00;;;17.48;81.86
57990;BME280;58373;51.824;5.564;2023-06-24T04:23:31;102346.69;;;17.49;82.00
57990;BME280;58373;51.824;5.564;2023-06-24T04:25:56;102343.09;;;17.50;81.93
57990;BME280;58373;51.824;5.564;2023-06-24T04:28:21;102348.19;;;17.52;81.50
57990;BME280;58373;51.824;5.564;2023-06-24T04:30:47;102343.63;;;17.54;81.61
57990;BME280;58373;51.824;5.564;2023-06-24T04:33:12;102349.69;;;17.55;81.80
57990;BME280;58373;51.824;5.564;2023-06-24T04:35:37;102351.38;;;17.56;81.65
57990;BME280;58373;51.824;5.564;2023-06-24T04:38:02;102345.84;;;17.59;81.53
57990;BME280;58373;51.824;5.564;2023-06-24T04:40:28;102347.50;;;17.60;81.35
57990;BME280;58373;51.824;5.564;2023-06-24T04:42:53;102345.59;;;17.62;81.49
57990;BME280;58373;51.824;5.564;2023-06-24T04:45:18;102350.84;;;17.62;81.28
57990;BME280;58373;51.824;5.564;2023-06-24T04:47:43;102350.13;;;17.60;81.53
57990;BME280;58373;51.824;5.564;2023-06-24T04:50:09;102355.38;;;17.60;81.26
57990;BME280;58373;51.824;5.564;2023-06-24T04:52:35;102351.81;;;17.61;81.11
57990;BME280;58373;51.824;5.564;2023-06-24T04:55:00;102352.75;;;17.60;80.57
57990;BME280;58373;51.824;5.564;2023-06-24T04:57:29;102345.84;;;17.59;80.68
57990;BME280;58373;51.824;5.564;2023-06-24T04:59:55;102361.59;;;17.59;80.53
57990;BME280;58373;51.824;5.564;2023-06-24T05:02:20;102358.00;;;17.60;80.32
57990;BME280;58373;51.824;5.564;2023-06-24T05:04:45;102353.59;;;17.60;80.20
57990;BME280;58373;51.824;5.564;2023-06-24T05:07:10;102351.81;;;17.61;79.96
57990;BME280;58373;51.824;5.564;2023-06-24T05:09:36;102350.03;;;17.61;79.91
57990;BME280;58373;51.824;5.564;2023-06-24T05:12:03;102349.88;;;17.63;79.76
57990;BME280;58373;51.824;5.564;2023-06-24T05:14:28;102347.25;;;17.63;79.70
57990;BME280;58373;51.824;5.564;2023-06-24T05:16:53;102348.91;;;17.64;79.72
57990;BME280;58373;51.824;5.564;2023-06-24T05:19:19;102345.31;;;17.65;79.29
57990;BME280;58373;51.824;5.564;2023-06-24T05:21:44;102344.25;;;17.67;79.19
57990;BME280;58373;51.824;5.564;2023-06-24T05:24:09;102345.06;;;17.68;79.41
57990;BME280;58373;51.824;5.564;2023-06-24T05:26:34;102353.63;;;17.70;79.29
57990;BME280;58373;51.824;5.564;2023-06-24T05:28:59;102346.47;;;17.72;79.18
57990;BME280;58373;51.824;5.564;2023-06-24T05:31:25;102353.13;;;17.76;79.20
57990;BME280;58373;51.824;5.564;2023-06-24T05:33:50;102349.13;;;17.82;79.23
57990;BME280;58373;51.824;5.564;2023-06-24T05:36:15;102356.16;;;17.81;78.82
57990;BME280;58373;51.824;5.564;2023-06-24T05:38:40;102353.16;;;17.86;78.85
57990;BME280;58373;51.824;5.564;2023-06-24T05:41:05;102356.44;;;17.88;78.68
57990;BME280;58373;51.824;5.564;2023-06-24T05:43:31;102358.81;;;17.91;78.66
57990;BME280;58373;51.824;5.564;2023-06-24T05:45:56;102364.50;;;17.96;78.48
57990;BME280;58373;51.824;5.564;2023-06-24T05:48:21;102366.69;;;18.00;78.37
57990;BME280;58373;51.824;5.564;2023-06-24T05:50:46;102367.00;;;18.07;78.31
57990;BME280;58373;51.824;5.564;2023-06-24T05:53:12;102357.75;;;18.13;78.19
57990;BME280;58373;51.824;5.564;2023-06-24T05:55:37;102364.09;;;18.20;77.87
57990;BME280;58373;51.824;5.564;2023-06-24T05:58:02;102366.44;;;18.23;77.76
57990;BME280;58373;51.824;5.564;2023-06-24T06:00:27;102367.81;;;18.27;77.77
57990;BME280;58373;51.824;5.564;2023-06-24T06:02:53;102373.91;;;18.27;77.42
57990;BME280;58373;51.824;5.564;2023-06-24T06:05:18;102369.47;;;18.28;77.61
57990;BME280;58373;51.824;5.564;2023-06-24T06:07:43;102370.72;;;18.34;77.38
57990;BME280;58373;51.824;5.564;2023-06-24T06:10:08;102373.63;;;18.40;76.78
57990;BME280;58373;51.824;5.564;2023-06-24T06:12:34;102372.69;;;18.41;76.73
57990;BME280;58373;51.824;5.564;2023-06-24T06:14:59;102368.13;;;18.43;76.79
57990;BME280;58373;51.824;5.564;2023-06-24T06:17:24;102368.94;;;18.53;76.30
57990;BME280;58373;51.824;5.564;2023-06-24T06:19:49;102365.03;;;18.57;76.20
57990;BME280;58373;51.824;5.564;2023-06-24T06:22:15;102367.56;;;18.59;75.68
57990;BME280;58373;51.824;5.564;2023-06-24T06:24:40;102368.78;;;18.65;75.12
57990;BME280;58373;51.824;5.564;2023-06-24T06:27:09;102373.06;;;18.66;74.57
57990;BME280;58373;51.824;5.564;2023-06-24T06:29:34;102377.81;;;18.72;74.32
57990;BME280;58373;51.824;5.564;2023-06-24T06:31:59;102377.22;;;18.78;73.80
57990;BME280;58373;51.824;5.564;2023-06-24T06:34:24;102387.19;;;18.84;73.86
57990;BME280;58373;51.824;5.564;2023-06-24T06:36:49;102380.25;;;18.93;73.60
57990;BME280;58373;51.824;5.564;2023-06-24T06:39:15;102380.22;;;19.02;73.41
57990;BME280;58373;51.824;5.564;2023-06-24T06:41:40;102385.63;;;19.10;73.61
57990;BME280;58373;51.824;5.564;2023-06-24T06:44:05;102387.66;;;19.17;73.05
57990;BME280;58373;51.824;5.564;2023-06-24T06:46:30;102388.75;;;19.24;72.74
57990;BME280;58373;51.824;5.564;2023-06-24T06:48:55;102392.28;;;19.32;72.16
57990;BME280;58373;51.824;5.564;2023-06-24T06:51:21;102391.47;;;19.32;71.43
57990;BME280;58373;51.824;5.564;2023-06-24T06:53:46;102390.06;;;19.37;72.22
57990;BME280;58373;51.824;5.564;2023-06-24T06:56:24;102396.44;;;19.45;71.38
57990;BME280;58373;51.824;5.564;2023-06-24T06:58:50;102400.56;;;19.47;71.51
57990;BME280;58373;51.824;5.564;2023-06-24T07:01:15;102392.09;;;19.53;71.16
57990;BME280;58373;51.824;5.564;2023-06-24T07:03:41;102388.63;;;19.62;70.66
57990;BME280;58373;51.824;5.564;2023-06-24T07:06:06;102389.44;;;19.63;70.15
57990;BME280;58373;51.824;5.564;2023-06-24T07:08:31;102397.44;;;19.71;70.98
57990;BME280;58373;51.824;5.564;2023-06-24T07:10:56;102397.47;;;19.89;70.68
57990;BME280;58373;51.824;5.564;2023-06-24T07:13:21;102398.91;;;20.01;70.32
57990;BME280;58373;51.824;5.564;2023-06-24T07:15:46;102402.19;;;20.13;70.21
57990;BME280;58373;51.824;5.564;2023-06-24T07:18:12;102405.41;;;20.25;69.90
57990;BME280;58373;51.824;5.564;2023-06-24T07:20:37;102406.47;;;20.32;69.76
57990;BME280;58373;51.824;5.564;2023-06-24T07:23:02;102409.88;;;20.42;69.02
57990;BME280;58373;51.824;5.564;2023-06-24T07:25:28;102407.69;;;20.55;68.64
57990;BME280;58373;51.824;5.564;2023-06-24T07:27:54;102414.84;;;20.63;68.55
57990;BME280;58373;51.824;5.564;2023-06-24T07:30:19;102408.81;;;20.71;68.38
57990;BME280;58373;51.824;5.564;2023-06-24T07:32:44;102412.47;;;20.78;68.10
57990;BME280;58373;51.824;5.564;2023-06-24T07:35:10;102401.31;;;20.84;67.68
57990;BME280;58373;51.824;5.564;2023-06-24T07:37:35;102405.00;;;20.91;67.29
57990;BME280;58373;51.824;5.564;2023-06-24T07:40:00;102404.06;;;21.00;66.76
57990;BME280;58373;51.824;5.564;2023-06-24T07:42:26;102405.13;;;21.15;65.72
57990;BME280;58373;51.824;5.564;2023-06-24T07:44:51;102400.91;;;21.23;65.81
57990;BME280;58373;51.824;5.564;2023-06-24T07:47:16;102413.19;;;21.32;65.57
57990;BME280;58373;51.824;5.564;2023-06-24T07:49:43;102412.19;;;21.33;65.35
57990;BME280;58373;51.824;5.564;2023-06-24T07:52:08;102415.19;;;21.38;65.40
57990;BME280;58373;51.824;5.564;2023-06-24T07:54:33;102409.28;;;21.44;64.71
57990;BME280;58373;51.824;5.564;2023-06-24T07:56:59;102412.13;;;21.51;64.57
57990;BME280;58373;51.824;5.564;2023-06-24T07:59:24;102412.00;;;21.60;64.45
57990;BME280;58373;51.824;5.564;2023-06-24T08:01:50;102397.84;;;21.69;63.61
57990;BME280;58373;51.824;5.564;2023-06-24T08:04:15;102405.47;;;21.81;63.50
57990;BME280;58373;51.824;5.564;2023-06-24T08:06:40;102395.38;;;21.84;63.20
57990;BME280;58373;51.824;5.564;2023-06-24T08:09:06;102396.09;;;21.94;63.30
57990;BME280;58373;51.824;5.564;2023-06-24T08:11:31;102384.38;;;22.05;62.79
57990;BME280;58373;51.824;5.564;2023-06-24T08:13:56;102388.38;;;22.09;62.83
57990;BME280;58373;51.824;5.564;2023-06-24T08:16:21;102389.91;;;22.20;62.33
57990;BME280;58373;51.824;5.564;2023-06-24T08:18:46;102388.06;;;22.29;61.63
57990;BME280;58373;51.824;5.564;2023-06-24T08:21:12;102388.25;;;22.43;61.78
57990;BME280;58373;51.824;5.564;2023-06-24T08:23:37;102388.09;;;22.61;61.60
57990;BME280;58373;51.824;5.564;2023-06-24T08:26:02;102388.56;;;22.73;61.23
57990;BME280;58373;51.824;5.564;2023-06-24T08:28:27;102388.72;;;22.88;60.88
57990;BME280;58373;51.824;5.564;2023-06-24T08:30:53;102382.44;;;22.97;60.12
57990;BME280;58373;51.824;5.564;2023-06-24T08:33:18;102376.59;;;23.10;59.32
57990;BME280;58373;51.824;5.564;2023-06-24T08:35:43;102377.09;;;23.13;58.40
57990;BME280;58373;51.824;5.564;2023-06-24T08:38:09;102372.78;;;23.20;57.82
57990;BME280;58373;51.824;5.564;2023-06-24T08:40:34;102375.69;;;23.33;58.48
57990;BME280;58373;51.824;5.564;2023-06-24T08:42:59;102380.59;;;23.45;57.75
57990;BME280;58373;51.824;5.564;2023-06-24T08:45:24;102378.50;;;23.40;56.66
57990;BME280;58373;51.824;5.564;2023-06-24T08:47:49;102374.16;;;23.47;57.30
57990;BME280;58373;51.824;5.564;2023-06-24T08:50:15;102375.13;;;23.54;56.71
57990;BME280;58373;51.824;5.564;2023-06-24T08:52:50;102377.59;;;23.56;56.51
57990;BME280;58373;51.824;5.564;2023-06-24T08:55:16;102372.22;;;23.72;56.92
57990;BME280;58373;51.824;5.564;2023-06-24T08:57:41;102377.50;;;23.80;56.41
57990;BME280;58373;51.824;5.564;2023-06-24T09:00:07;102376.13;;;23.84;56.48
57990;BME280;58373;51.824;5.564;2023-06-24T09:02:36;102373.78;;;23.90;56.52
57990;BME280;58373;51.824;5.564;2023-06-24T09:05:03;102380.41;;;23.94;55.95
57990;BME280;58373;51.824;5.564;2023-06-24T09:07:29;102384.88;;;23.93;55.61
57990;BME280;58373;51.824;5.564;2023-06-24T09:09:54;102370.72;;;24.01;55.21
57990;BME280;58373;51.824;5.564;2023-06-24T09:12:19;102379.22;;;24.19;54.91
57990;BME280;58373;51.824;5.564;2023-06-24T09:14:48;102378.88;;;24.22;55.01
57990;BME280;58373;51.824;5.564;2023-06-24T09:17:14;102376.13;;;24.30;54.68
57990;BME280;58373;51.824;5.564;2023-06-24T09:19:39;102373.47;;;24.39;54.44
57990;BME280;58373;51.824;5.564;2023-06-24T09:22:05;102376.41;;;24.44;54.35
57990;BME280;58373;51.824;5.564;2023-06-24T09:24:31;102375.03;;;24.48;53.98
57990;BME280;58373;51.824;5.564;2023-06-24T09:26:56;102368.13;;;24.61;52.88
57990;BME280;58373;51.824;5.564;2023-06-24T09:29:29;102369.13;;;24.75;53.57
57990;BME280;58373;51.824;5.564;2023-06-24T09:31:56;102366.03;;;24.86;52.78
57990;BME280;58373;51.824;5.564;2023-06-24T09:34:23;102365.56;;;24.83;52.85
57990;BME280;58373;51.824;5.564;2023-06-24T09:36:52;102359.38;;;24.90;52.59
57990;BME280;58373;51.824;5.564;2023-06-24T09:39:18;102352.91;;;25.08;52.50
57990;BME280;58373;51.824;5.564;2023-06-24T09:41:45;102357.34;;;25.22;49.57
57990;BME280;58373;51.824;5.564;2023-06-24T09:44:14;102349.66;;;24.98;49.83
57990;BME280;58373;51.824;5.564;2023-06-24T09:46:41;102343.25;;;24.92;50.51
57990;BME280;58373;51.824;5.564;2023-06-24T09:49:07;102347.81;;;24.98;51.21
57990;BME280;58373;51.824;5.564;2023-06-24T09:51:37;102345.22;;;25.13;51.41
57990;BME280;58373;51.824;5.564;2023-06-24T09:54:04;102345.53;;;25.39;51.32
57990;BME280;58373;51.824;5.564;2023-06-24T09:56:30;102354.28;;;25.55;50.77
57990;BME280;58373;51.824;5.564;2023-06-24T09:58:56;102345.00;;;25.65;50.64
57990;BME280;58373;51.824;5.564;2023-06-24T10:01:21;102350.13;;;25.82;51.04
57990;BME280;58373;51.824;5.564;2023-06-24T10:03:47;102342.84;;;25.90;50.25
57990;BME280;58373;51.824;5.564;2023-06-24T10:06:12;102348.59;;;25.94;50.73
57990;BME280;58373;51.824;5.564;2023-06-24T10:08:37;102357.41;;;25.94;50.41
57990;BME280;58373;51.824;5.564;2023-06-24T10:11:03;102352.34;;;26.00;49.37
57990;BME280;58373;51.824;5.564;2023-06-24T10:13:28;102354.34;;;25.98;49.39
57990;BME280;58373;51.824;5.564;2023-06-24T10:15:54;102352.59;;;26.05;49.14
57990;BME280;58373;51.824;5.564;2023-06-24T10:20:59;102347.03;;;26.00;49.21
57990;BME280;58373;51.824;5.564;2023-06-24T10:23:57;102347.78;;;25.93;48.83
57990;BME280;58373;51.824;5.564;2023-06-24T10:26:23;102343.84;;;25.89;48.24
57990;BME280;58373;51.824;5.564;2023-06-24T10:34:27;102341.59;;;25.86;48.44
57990;BME280;58373;51.824;5.564;2023-06-24T10:36:53;102341.06;;;25.98;48.94
57990;BME280;58373;51.824;5.564;2023-06-24T10:39:35;102338.13;;;26.14;48.48
57990;BME280;58373;51.824;5.564;2023-06-24T10:44:48;102338.47;;;26.54;48.44
57990;BME280;58373;51.824;5.564;2023-06-24T10:47:13;102340.63;;;26.71;48.06
57990;BME280;58373;51.824;5.564;2023-06-24T10:49:38;102338.25;;;26.83;47.56
57990;BME280;58373;51.824;5.564;2023-06-24T10:52:03;102333.00;;;26.96;47.39
57990;BME280;58373;51.824;5.564;2023-06-24T10:54:29;102329.31;;;26.97;47.23
57990;BME280;58373;51.824;5.564;2023-06-24T10:56:54;102340.81;;;27.05;48.26
57990;BME280;58373;51.824;5.564;2023-06-24T10:59:20;102335.19;;;27.21;47.77
57990;BME280;58373;51.824;5.564;2023-06-24T11:01:54;102330.72;;;27.28;46.83
57990;BME280;58373;51.824;5.564;2023-06-24T11:04:19;102332.75;;;27.26;46.72
57990;BME280;58373;51.824;5.564;2023-06-24T11:07:00;102324.53;;;27.21;46.81
57990;BME280;58373;51.824;5.564;2023-06-24T11:09:26;102320.88;;;27.29;47.23
57990;BME280;58373;51.824;5.564;2023-06-24T11:11:51;102324.00;;;27.45;46.38
57990;BME280;58373;51.824;5.564;2023-06-24T11:14:17;102324.56;;;27.34;47.14
57990;BME280;58373;51.824;5.564;2023-06-24T11:16:42;102316.41;;;27.42;47.08
57990;BME280;58373;51.824;5.564;2023-06-24T11:19:08;102317.06;;;27.58;46.42
57990;BME280;58373;51.824;5.564;2023-06-24T11:21:33;102321.78;;;27.69;46.57
57990;BME280;58373;51.824;5.564;2023-06-24T11:24:05;102316.50;;;27.75;46.54
57990;BME280;58373;51.824;5.564;2023-06-24T11:26:30;102313.66;;;27.77;46.37
57990;BME280;58373;51.824;5.564;2023-06-24T11:28:56;102310.97;;;27.84;46.38
57990;BME280;58373;51.824;5.564;2023-06-24T11:31:27;102309.97;;;27.91;46.25
57990;BME280;58373;51.824;5.564;2023-06-24T11:33:52;102295.19;;;27.95;45.74
57990;BME280;58373;51.824;5.564;2023-06-24T11:36:18;102296.44;;;27.99;45.64
57990;BME280;58373;51.824;5.564;2023-06-24T11:38:45;102304.00;;;27.96;45.27
57990;BME280;58373;51.824;5.564;2023-06-24T11:41:10;102298.47;;;27.84;45.82
57990;BME280;58373;51.824;5.564;2023-06-24T11:43:35;102296.41;;;27.86;44.87
57990;BME280;58373;51.824;5.564;2023-06-24T11:46:00;102299.28;;;27.78;45.17
57990;BME280;58373;51.824;5.564;2023-06-24T11:48:28;102286.91;;;27.64;41.57
57990;BME280;58373;51.824;5.564;2023-06-24T11:50:54;102292.25;;;27.50;44.82
57990;BME280;58373;51.824;5.564;2023-06-24T11:53:29;102284.06;;;27.59;44.37
57990;BME280;58373;51.824;5.564;2023-06-24T11:55:55;102291.47;;;27.70;44.51
57990;BME280;58373;51.824;5.564;2023-06-24T11:58:21;102290.22;;;27.66;45.36
57990;BME280;58373;51.824;5.564;2023-06-24T12:00:48;102286.91;;;27.64;44.67
57990;BME280;58373;51.824;5.564;2023-06-24T12:03:13;102287.81;;;27.71;44.64
57990;BME280;58373;51.824;5.564;2023-06-24T12:05:39;102277.53;;;27.81;44.49
57990;BME280;58373;51.824;5.564;2023-06-24T12:08:10;102281.88;;;27.95;44.48
57990;BME280;58373;51.824;5.564;2023-06-24T12:10:36;102280.63;;;28.18;44.08
57990;BME280;58373;51.824;5.564;2023-06-24T12:13:02;102281.88;;;28.35;41.80
57990;BME280;58373;51.824;5.564;2023-06-24T12:15:28;102281.22;;;28.26;44.01
57990;BME280;58373;51.824;5.564;2023-06-24T12:17:53;102280.81;;;28.36;43.94
57990;BME280;58373;51.824;5.564;2023-06-24T12:20:19;102279.19;;;28.28;40.62
57990;BME280;58373;51.824;5.564;2023-06-24T12:22:45;102286.16;;;28.23;43.83
57990;BME280;58373;51.824;5.564;2023-06-24T12:25:10;102281.22;;;28.26;43.13
57990;BME280;58373;51.824;5.564;2023-06-24T12:27:35;102278.78;;;28.12;42.78
57990;BME280;58373;51.824;5.564;2023-06-24T12:30:00;102276.31;;;28.17;43.94
57990;BME280;58373;51.824;5.564;2023-06-24T12:32:26;102275.50;;;28.16;42.53
57990;BME280;58373;51.824;5.564;2023-06-24T12:34:52;102273.84;;;27.95;42.18
57990;BME280;58373;51.824;5.564;2023-06-24T12:37:18;102274.47;;;27.97;42.88
57990;BME280;58373;51.824;5.564;2023-06-24T12:39:43;102261.94;;;27.91;43.86
57990;BME280;58373;51.824;5.564;2023-06-24T12:42:08;102262.97;;;28.03;43.57
57990;BME280;58373;51.824;5.564;2023-06-24T12:44:33;102263.19;;;28.09;44.85
57990;BME280;58373;51.824;5.564;2023-06-24T12:46:59;102261.94;;;28.18;44.79
57990;BME280;58373;51.824;5.564;2023-06-24T12:49:24;102264.59;;;28.31;44.50
57990;BME280;58373;51.824;5.564;2023-06-24T12:51:49;102263.19;;;28.35;41.48
57990;BME280;58373;51.824;5.564;2023-06-24T12:54:14;102261.53;;;28.14;40.59
57990;BME280;58373;51.824;5.564;2023-06-24T12:56:39;102252.72;;;28.00;42.93
57990;BME280;58373;51.824;5.564;2023-06-24T12:59:05;102255.41;;;28.00;43.94
57990;BME280;58373;51.824;5.564;2023-06-24T13:01:30;102251.09;;;27.99;43.15
57990;BME280;58373;51.824;5.564;2023-06-24T13:03:56;102244.31;;;27.97;44.07